createdAt,value
2023-05-14T00:01:01.099Z,7.57
2023-05-14T00:03:28.144Z,7.20
2023-05-14T00:05:55.141Z,6.95
2023-05-14T00:08:21.985Z,6.82
2023-05-14T00:10:48.874Z,6.70
2023-05-14T00:13:18.708Z,7.35
2023-05-14T00:15:48.490Z,7.07
2023-05-14T00:18:15.556Z,7.57
2023-05-14T00:20:42.753Z,7.90
2023-05-14T00:23:09.665Z,6.75
2023-05-14T00:25:36.939Z,6.50
2023-05-14T00:28:04.330Z,7.57
2023-05-14T00:30:31.397Z,7.55
2023-05-14T00:32:58.330Z,8.35
2023-05-14T00:35:25.368Z,7.70
2023-05-14T00:37:52.358Z,7.63
2023-05-14T00:40:19.791Z,7.60
2023-05-14T00:42:46.910Z,7.45
2023-05-14T00:45:14.016Z,8.48
2023-05-14T00:47:41.061Z,7.18
2023-05-14T00:50:08.518Z,8.00
2023-05-14T00:52:35.502Z,7.95
2023-05-14T00:55:04.337Z,7.68
2023-05-14T00:57:31.284Z,6.88
2023-05-14T00:59:58.583Z,6.97
2023-05-14T01:02:25.600Z,7.68
2023-05-14T01:04:52.720Z,7.13
2023-05-14T01:07:25.635Z,7.05
2023-05-14T01:10:04.285Z,8.33
2023-05-14T01:12:40.862Z,7.47
2023-05-14T01:15:28.938Z,6.68
2023-05-14T01:17:59.813Z,7.60
2023-05-14T01:20:27.228Z,8.10
2023-05-14T01:22:54.134Z,7.00
2023-05-14T01:25:21.040Z,8.10
2023-05-14T01:27:53.654Z,8.95
2023-05-14T01:30:24.932Z,8.80
2023-05-14T01:32:53.819Z,8.27
2023-05-14T01:35:22.726Z,7.85
2023-05-14T01:37:49.614Z,9.02
2023-05-14T01:40:16.718Z,7.82
2023-05-14T01:42:43.721Z,8.82
2023-05-14T01:45:11.004Z,8.65
2023-05-14T01:47:37.893Z,9.00
2023-05-14T01:50:05.565Z,9.55
2023-05-14T01:52:35.026Z,9.90
2023-05-14T01:55:01.929Z,8.45
2023-05-14T01:57:29.007Z,10.57
2023-05-14T01:59:55.876Z,9.00
2023-05-14T02:02:22.851Z,10.00
2023-05-14T02:04:50.087Z,10.85
2023-05-14T02:07:17.040Z,10.40
2023-05-14T02:09:44.006Z,9.73
2023-05-14T02:12:12.033Z,10.38
2023-05-14T02:14:41.519Z,10.02
2023-05-14T02:17:08.694Z,9.98
2023-05-14T02:19:35.725Z,9.73
2023-05-14T02:22:02.703Z,10.70
2023-05-14T02:24:29.692Z,9.68
2023-05-14T02:26:56.556Z,9.18
2023-05-14T02:29:23.489Z,10.25
2023-05-14T02:31:50.569Z,9.15
2023-05-14T02:34:17.519Z,10.13
2023-05-14T02:36:45.657Z,10.05
2023-05-14T02:39:12.528Z,10.13
2023-05-14T02:41:39.384Z,10.68
2023-05-14T02:44:06.294Z,8.82
2023-05-14T02:46:33.289Z,9.88
2023-05-14T02:49:00.232Z,9.55
2023-05-14T02:51:27.429Z,9.45
2023-05-14T02:53:54.541Z,9.07
2023-05-14T02:56:21.375Z,9.40
2023-05-14T02:58:48.342Z,9.73
2023-05-14T03:01:15.324Z,9.27
2023-05-14T03:03:42.677Z,9.75
2023-05-14T03:06:10.086Z,9.25
2023-05-14T03:08:37.071Z,10.23
2023-05-14T03:11:05.160Z,9.13
2023-05-14T03:13:32.050Z,10.30
2023-05-14T03:15:58.839Z,9.30
2023-05-14T03:18:28.405Z,10.35
2023-05-14T03:20:57.704Z,9.55
2023-05-14T03:23:24.634Z,9.70
2023-05-14T03:25:51.645Z,9.43
2023-05-14T03:28:18.687Z,10.50
2023-05-14T03:30:45.744Z,9.52
2023-05-14T03:33:12.815Z,9.82
2023-05-14T03:35:39.701Z,9.50
2023-05-14T03:38:06.644Z,10.13
2023-05-14T03:40:33.599Z,9.82
2023-05-14T03:43:00.811Z,10.02
2023-05-14T03:45:28.838Z,9.57
2023-05-14T03:47:56.149Z,9.25
2023-05-14T03:50:25.690Z,10.88
2023-05-14T03:52:52.876Z,8.70
2023-05-14T03:55:22.906Z,10.38
2023-05-14T03:57:49.869Z,10.20
2023-05-14T04:00:16.970Z,9.43
2023-05-14T04:02:43.968Z,10.10
2023-05-14T04:05:10.965Z,9.30
2023-05-14T04:07:37.979Z,9.73
2023-05-14T04:10:05.789Z,9.75
2023-05-14T04:12:32.913Z,8.98
2023-05-14T04:14:59.737Z,9.45
2023-05-14T04:17:27.096Z,8.90
2023-05-14T04:19:54.059Z,10.00
2023-05-14T04:22:21.000Z,9.25
2023-05-14T04:24:47.866Z,8.68
2023-05-14T04:27:24.155Z,8.35
2023-05-14T04:29:50.973Z,8.73
2023-05-14T04:32:18.382Z,9.32
2023-05-14T04:34:48.413Z,8.48
2023-05-14T04:37:15.356Z,8.85
2023-05-14T04:39:42.743Z,8.45
2023-05-14T04:42:09.861Z,9.82
2023-05-14T04:44:37.933Z,9.63
2023-05-14T04:47:07.071Z,9.90
2023-05-14T04:49:33.977Z,9.52
2023-05-14T04:52:01.625Z,10.00
2023-05-14T04:54:28.629Z,9.10
2023-05-14T04:56:56.113Z,9.75
2023-05-14T04:59:23.065Z,9.63
2023-05-14T05:01:50.018Z,9.10
2023-05-14T05:04:17.052Z,8.93
2023-05-14T05:06:44.014Z,8.98
2023-05-14T05:09:11.152Z,9.63
2023-05-14T05:11:39.137Z,10.88
2023-05-14T05:14:06.102Z,9.57
2023-05-14T05:16:33.165Z,8.85
2023-05-14T05:19:00.188Z,9.38
2023-05-14T05:21:27.144Z,8.68
2023-05-14T05:23:54.013Z,7.88
2023-05-14T05:26:22.323Z,8.38
2023-05-14T05:28:49.135Z,7.50
2023-05-14T05:31:18.344Z,7.68
2023-05-14T05:33:46.656Z,8.32
2023-05-14T05:36:13.517Z,8.05
2023-05-14T05:38:40.530Z,7.55
2023-05-14T05:41:07.688Z,7.78
2023-05-14T05:43:35.766Z,7.68
2023-05-14T05:46:02.698Z,7.47
2023-05-14T05:48:29.576Z,7.57
2023-05-14T05:50:59.551Z,7.57
2023-05-14T05:53:26.404Z,7.50
2023-05-14T05:55:53.317Z,7.78
2023-05-14T05:58:21.348Z,7.05
2023-05-14T06:00:48.557Z,6.57
2023-05-14T06:03:16.624Z,7.78
2023-05-14T06:05:43.758Z,8.05
2023-05-14T06:08:10.832Z,7.32
2023-05-14T06:10:37.642Z,7.68
2023-05-14T06:13:04.540Z,7.18
2023-05-14T06:15:31.451Z,7.85
2023-05-14T06:17:58.525Z,8.82
2023-05-14T06:20:25.671Z,7.47
2023-05-14T06:22:52.853Z,8.07
2023-05-14T06:25:19.907Z,8.23
2023-05-14T06:27:46.796Z,7.95
2023-05-14T06:30:14.180Z,7.38
2023-05-14T06:32:43.830Z,6.70
2023-05-14T06:35:10.876Z,7.88
2023-05-14T06:37:37.774Z,7.97
2023-05-14T06:40:05.423Z,7.63
2023-05-14T06:42:32.296Z,7.78
2023-05-14T06:44:59.232Z,7.07
2023-05-14T06:47:26.170Z,7.75
2023-05-14T06:49:53.088Z,7.00
2023-05-14T06:52:19.927Z,7.95
2023-05-14T06:54:46.882Z,7.45
2023-05-14T06:57:13.831Z,7.38
2023-05-14T06:59:40.820Z,7.38
2023-05-14T07:02:07.944Z,7.82
2023-05-14T07:04:35.214Z,8.15
2023-05-14T07:07:02.238Z,8.43
2023-05-14T07:09:31.273Z,6.93
2023-05-14T07:11:58.143Z,8.10
2023-05-14T07:14:25.088Z,8.57
2023-05-14T07:17:00.989Z,8.88
2023-05-14T07:19:29.748Z,7.72
2023-05-14T07:21:57.914Z,8.32
2023-05-14T07:24:24.847Z,7.82
2023-05-14T07:26:52.062Z,7.30
2023-05-14T07:29:22.231Z,7.65
2023-05-14T07:31:51.729Z,8.73
2023-05-14T07:34:19.511Z,8.13
2023-05-14T07:36:55.511Z,8.60
2023-05-14T07:39:24.981Z,7.85
2023-05-14T07:41:51.907Z,7.75
2023-05-14T07:44:18.784Z,7.47
2023-05-14T07:46:48.667Z,8.10
2023-05-14T07:49:15.733Z,7.50
2023-05-14T07:51:51.661Z,7.93
2023-05-14T07:54:18.631Z,8.45
2023-05-14T07:56:48.248Z,8.68
2023-05-14T07:59:15.174Z,8.00
2023-05-14T08:01:42.148Z,8.27
2023-05-14T08:04:11.778Z,8.45
2023-05-14T08:06:38.822Z,9.32
2023-05-14T08:09:07.965Z,7.70
2023-05-14T08:11:35.107Z,8.20
2023-05-14T08:14:02.009Z,8.70
2023-05-14T08:16:29.463Z,8.68
2023-05-14T08:18:56.621Z,8.38
2023-05-14T08:21:23.596Z,8.07
2023-05-14T08:23:51.052Z,8.32
2023-05-14T08:26:17.910Z,8.98
2023-05-14T08:28:44.944Z,9.70
2023-05-14T08:31:12.053Z,7.38
2023-05-14T08:33:39.069Z,8.95
2023-05-14T08:36:07.308Z,7.45
2023-05-14T08:38:34.371Z,8.25
2023-05-14T08:41:01.253Z,8.52
2023-05-14T08:43:31.125Z,8.55
2023-05-14T08:45:59.594Z,7.95
2023-05-14T08:48:28.271Z,7.35
2023-05-14T08:50:55.377Z,8.63
2023-05-14T08:53:23.621Z,7.40
2023-05-14T08:55:51.378Z,7.78
2023-05-14T08:58:18.483Z,7.80
2023-05-14T09:00:48.143Z,6.63
2023-05-14T09:03:15.118Z,8.38
2023-05-14T09:05:41.965Z,7.95
2023-05-14T09:08:08.858Z,6.60
2023-05-14T09:10:35.862Z,7.53
2023-05-14T09:13:02.820Z,7.45
2023-05-14T09:15:29.909Z,7.70
2023-05-14T09:17:57.152Z,8.35
2023-05-14T09:20:25.225Z,7.57
2023-05-14T09:22:55.561Z,7.63
2023-05-14T09:25:27.013Z,7.00
2023-05-14T09:27:56.697Z,7.43
2023-05-14T09:30:25.507Z,6.75
2023-05-14T09:32:54.345Z,7.32
2023-05-14T09:35:22.878Z,7.45
2023-05-14T09:37:51.111Z,5.97
2023-05-14T09:40:18.848Z,7.13
2023-05-14T09:42:46.802Z,6.25
2023-05-14T09:45:13.790Z,7.57
2023-05-14T09:47:40.978Z,6.95
2023-05-14T09:50:08.321Z,6.72
2023-05-14T09:52:35.706Z,7.25
2023-05-14T09:55:02.885Z,7.18
2023-05-14T09:57:29.933Z,7.22
2023-05-14T09:59:56.886Z,7.28
2023-05-14T10:02:25.590Z,7.82
2023-05-14T10:04:53.984Z,6.88
2023-05-14T10:07:27.440Z,8.25
2023-05-14T10:09:59.363Z,7.03
2023-05-14T10:12:27.134Z,7.45
2023-05-14T10:14:54.043Z,7.55
2023-05-14T10:17:22.025Z,7.95
2023-05-14T10:19:56.992Z,7.63
2023-05-14T10:22:24.959Z,7.72
2023-05-14T10:24:52.698Z,7.40
2023-05-14T10:27:22.703Z,8.50
2023-05-14T10:29:54.558Z,7.10
2023-05-14T10:32:23.388Z,6.60
2023-05-14T10:34:50.294Z,7.45
2023-05-14T10:37:26.880Z,6.63
2023-05-14T10:39:54.441Z,8.10
2023-05-14T10:42:22.381Z,7.18
2023-05-14T10:45:02.823Z,7.60
2023-05-14T10:47:29.805Z,7.47
2023-05-14T10:50:00.147Z,7.85
2023-05-14T10:52:27.112Z,7.75
2023-05-14T10:54:56.034Z,7.35
2023-05-14T10:57:24.539Z,6.43
2023-05-14T10:59:55.044Z,7.03
2023-05-14T11:02:30.100Z,7.18
2023-05-14T11:05:00.952Z,7.72
2023-05-14T11:07:32.545Z,7.63
2023-05-14T11:10:06.514Z,6.93
2023-05-14T11:12:40.982Z,7.75
2023-05-14T11:15:12.536Z,7.13
2023-05-14T11:17:43.656Z,7.40
2023-05-14T11:20:11.343Z,7.03
2023-05-14T11:22:39.461Z,7.45
2023-05-14T11:25:07.153Z,8.50
2023-05-14T11:27:38.062Z,6.78
2023-05-14T11:30:05.410Z,7.55
2023-05-14T11:32:33.291Z,7.00
2023-05-14T11:35:00.420Z,8.15
2023-05-14T11:37:27.493Z,7.97
2023-05-14T11:39:55.580Z,6.50
2023-05-14T11:42:22.736Z,6.82
2023-05-14T11:44:51.917Z,8.35
2023-05-14T11:47:19.702Z,7.38
2023-05-14T11:49:46.758Z,6.20
2023-05-14T11:52:14.913Z,7.25
2023-05-14T11:54:42.963Z,6.60
2023-05-14T11:57:14.098Z,6.32
2023-05-14T11:59:41.296Z,7.68
2023-05-14T12:02:18.274Z,7.07
2023-05-14T12:04:50.321Z,6.95
2023-05-14T12:07:17.297Z,7.35
2023-05-14T12:09:49.957Z,7.90
2023-05-14T12:12:23.175Z,6.47
2023-05-14T12:14:52.934Z,6.65
2023-05-14T12:17:21.094Z,6.90
2023-05-14T12:19:52.089Z,6.85
2023-05-14T12:22:22.927Z,6.53
2023-05-14T12:24:53.938Z,7.40
2023-05-14T12:27:23.557Z,7.32
2023-05-14T12:29:53.601Z,7.03
2023-05-14T12:32:20.629Z,6.53
2023-05-14T12:34:47.473Z,7.20
2023-05-14T12:37:14.448Z,6.82
2023-05-14T12:39:41.451Z,6.85
2023-05-14T12:42:08.485Z,6.35
2023-05-14T12:44:35.445Z,6.88
2023-05-14T12:47:02.512Z,5.82
2023-05-14T12:49:29.485Z,5.88
2023-05-14T12:52:07.666Z,5.68
2023-05-14T12:54:43.564Z,5.07
2023-05-14T12:57:10.691Z,5.20
2023-05-14T12:59:37.576Z,4.72
2023-05-14T13:02:05.050Z,6.50
2023-05-14T13:04:32.029Z,6.13
2023-05-14T13:06:58.925Z,5.88
2023-05-14T13:09:27.845Z,5.38
2023-05-14T13:11:54.734Z,4.53
2023-05-14T13:14:23.014Z,5.38
2023-05-14T13:16:50.272Z,6.25
2023-05-14T13:19:17.389Z,5.25
2023-05-14T13:21:44.471Z,5.55
2023-05-14T13:24:11.450Z,7.70
2023-05-14T13:26:38.371Z,6.75
2023-05-14T13:29:06.307Z,6.38
2023-05-14T13:31:33.864Z,6.28
2023-05-14T13:34:03.608Z,6.20
2023-05-14T13:36:32.352Z,6.55
2023-05-14T13:39:02.052Z,5.75
2023-05-14T13:41:30.158Z,6.55
2023-05-14T13:43:57.052Z,6.22
2023-05-14T13:46:24.078Z,6.85
2023-05-14T13:48:50.986Z,6.90
2023-05-14T13:51:17.999Z,6.80
2023-05-14T13:53:45.818Z,6.15
2023-05-14T13:56:12.729Z,6.97
2023-05-14T13:58:39.705Z,6.68
2023-05-14T14:01:06.542Z,5.70
2023-05-14T14:03:33.697Z,5.50
2023-05-14T14:06:01.198Z,6.15
2023-05-14T14:08:28.095Z,6.20
2023-05-14T14:10:55.576Z,4.95
2023-05-14T14:13:23.017Z,3.75
2023-05-14T14:15:50.415Z,4.10
2023-05-14T14:18:17.349Z,4.53
2023-05-14T14:20:44.371Z,4.13
2023-05-14T14:23:11.301Z,3.97
2023-05-14T14:25:38.363Z,3.22
2023-05-14T14:28:05.560Z,4.22
2023-05-14T14:30:32.959Z,3.13
2023-05-14T14:33:01.431Z,4.63
2023-05-14T14:35:28.405Z,3.78
2023-05-14T14:37:55.857Z,3.78
2023-05-14T14:40:24.118Z,3.42
2023-05-14T14:42:54.325Z,3.95
2023-05-14T14:45:21.662Z,3.65
2023-05-14T14:47:49.463Z,3.58
2023-05-14T14:50:16.456Z,3.90
2023-05-14T14:52:46.406Z,4.07
2023-05-14T14:55:13.563Z,4.15
2023-05-14T14:57:40.513Z,4.18
2023-05-14T15:00:10.342Z,4.47
2023-05-14T15:02:48.975Z,3.75
2023-05-14T15:05:15.912Z,3.38
2023-05-14T15:07:42.891Z,3.67
2023-05-14T15:10:10.061Z,4.32
2023-05-14T15:12:39.163Z,4.38
2023-05-14T15:15:06.914Z,4.18
2023-05-14T15:17:33.777Z,3.75
2023-05-14T15:20:00.742Z,3.38
2023-05-14T15:22:28.474Z,3.83
2023-05-14T15:24:55.489Z,3.97
2023-05-14T15:27:22.418Z,3.67
2023-05-14T15:29:49.628Z,3.83
2023-05-14T15:32:20.037Z,4.22
2023-05-14T15:34:47.058Z,3.25
2023-05-14T15:37:16.587Z,3.40
2023-05-14T15:39:43.592Z,3.53
2023-05-14T15:42:10.785Z,4.38
2023-05-14T15:44:39.046Z,3.67
2023-05-14T15:47:06.489Z,4.05
2023-05-14T15:49:33.466Z,3.95
2023-05-14T15:52:00.739Z,3.45
2023-05-14T15:54:27.650Z,3.15
2023-05-14T15:56:55.652Z,3.40
2023-05-14T15:59:22.611Z,3.80
2023-05-14T16:01:50.252Z,4.45
2023-05-14T16:04:17.285Z,3.75
2023-05-14T16:06:45.310Z,4.28
2023-05-14T16:09:12.292Z,3.92
2023-05-14T16:11:42.239Z,4.65
2023-05-14T16:14:14.801Z,3.88
2023-05-14T16:16:41.803Z,4.25
2023-05-14T16:19:08.765Z,3.60
2023-05-14T16:21:35.839Z,3.38
2023-05-14T16:24:03.325Z,4.05
2023-05-14T16:26:30.737Z,3.70
2023-05-14T16:28:57.600Z,3.30
2023-05-14T16:31:24.606Z,3.85
2023-05-14T16:33:52.003Z,3.58
2023-05-14T16:36:18.944Z,4.13
2023-05-14T16:39:05.379Z,3.85
2023-05-14T16:41:32.920Z,4.25
2023-05-14T16:43:59.939Z,3.90
2023-05-14T16:46:28.927Z,3.92
2023-05-14T16:48:56.166Z,4.80
2023-05-14T16:51:23.115Z,5.00
2023-05-14T16:53:50.655Z,3.60
2023-05-14T16:56:19.129Z,3.53
2023-05-14T16:58:46.066Z,3.78
2023-05-14T17:01:17.283Z,3.08
2023-05-14T17:03:45.776Z,3.15
2023-05-14T17:06:12.744Z,3.13
2023-05-14T17:08:39.779Z,3.58
2023-05-14T17:11:08.309Z,2.75
2023-05-14T17:13:35.756Z,3.30
2023-05-14T17:16:02.753Z,3.28
2023-05-14T17:18:37.043Z,3.05
2023-05-14T17:21:05.920Z,2.75
2023-05-14T17:23:33.109Z,3.50
2023-05-14T17:26:00.136Z,3.33
2023-05-14T17:28:28.536Z,3.00
2023-05-14T17:30:56.441Z,2.40
2023-05-14T17:33:25.667Z,2.63
2023-05-14T17:35:52.708Z,3.00
2023-05-14T17:38:19.709Z,3.13
2023-05-14T17:40:46.694Z,3.38
2023-05-14T17:43:13.686Z,2.78
2023-05-14T17:45:53.291Z,3.50
2023-05-14T17:48:21.165Z,2.78
2023-05-14T17:50:51.920Z,2.95
2023-05-14T17:53:19.064Z,3.33
2023-05-14T17:55:46.247Z,3.45
2023-05-14T17:58:14.536Z,3.22
2023-05-14T18:00:41.737Z,2.72
2023-05-14T18:03:12.995Z,2.33
2023-05-14T18:05:40.043Z,3.05
2023-05-14T18:08:07.103Z,2.35
2023-05-14T18:10:34.037Z,2.30
2023-05-14T18:13:00.960Z,2.22
2023-05-14T18:15:27.899Z,2.53
2023-05-14T18:17:57.923Z,2.60
2023-05-14T18:20:27.698Z,2.50
2023-05-14T18:22:54.687Z,2.45
2023-05-14T18:25:25.171Z,2.70
2023-05-14T18:27:52.290Z,2.42
2023-05-14T18:30:19.213Z,2.00
2023-05-14T18:32:46.773Z,3.42
2023-05-14T18:35:14.044Z,2.53
2023-05-14T18:37:41.291Z,2.35
2023-05-14T18:40:14.715Z,3.10
2023-05-14T18:42:42.981Z,3.47
2023-05-14T18:45:10.413Z,3.05
2023-05-14T18:47:37.462Z,2.58
2023-05-14T18:50:07.756Z,3.50
2023-05-14T18:52:35.109Z,3.38
2023-05-14T18:55:02.157Z,3.50
2023-05-14T18:57:44.530Z,5.53
2023-05-14T19:00:15.494Z,6.22
2023-05-14T19:02:42.630Z,7.68
2023-05-14T19:05:09.923Z,6.95
2023-05-14T19:07:38.380Z,8.63
2023-05-14T19:10:05.937Z,8.38
2023-05-14T19:12:32.917Z,10.10
2023-05-14T19:14:59.938Z,9.18
2023-05-14T19:17:29.174Z,8.43
2023-05-14T19:19:56.173Z,8.77
2023-05-14T19:22:23.558Z,9.77
2023-05-14T19:24:50.692Z,9.80
2023-05-14T19:27:18.643Z,10.20
2023-05-14T19:29:48.727Z,9.68
2023-05-14T19:32:16.821Z,10.60
2023-05-14T19:34:43.906Z,10.50
2023-05-14T19:37:11.408Z,11.23
2023-05-14T19:39:38.389Z,10.63
2023-05-14T19:42:05.630Z,10.02
2023-05-14T19:44:34.427Z,11.45
2023-05-14T19:47:01.416Z,9.93
2023-05-14T19:49:28.444Z,10.82
2023-05-14T19:51:55.821Z,11.45
2023-05-14T19:54:29.074Z,9.88
2023-05-14T19:56:59.087Z,9.45
2023-05-14T19:59:26.116Z,9.25
2023-05-14T20:01:54.704Z,7.20
2023-05-14T20:04:21.898Z,6.95
2023-05-14T20:06:49.433Z,4.75
2023-05-14T20:09:16.490Z,5.53
2023-05-14T20:11:43.341Z,4.28
2023-05-14T20:14:13.285Z,2.53
2023-05-14T20:16:40.352Z,2.83
2023-05-14T20:19:07.898Z,2.90
2023-05-14T20:21:34.850Z,2.17
2023-05-14T20:24:01.927Z,1.85
2023-05-14T20:26:28.918Z,1.52
2023-05-14T20:28:58.396Z,1.25
2023-05-14T20:31:25.551Z,1.20
2023-05-14T20:33:52.711Z,1.10
2023-05-14T20:36:22.096Z,1.65
2023-05-14T20:38:49.033Z,1.10
2023-05-14T20:41:18.375Z,1.33
2023-05-14T20:43:51.435Z,1.60
2023-05-14T20:46:18.808Z,0.98
2023-05-14T20:48:49.847Z,0.90
2023-05-14T20:51:16.997Z,0.90
2023-05-14T20:53:44.006Z,1.77
2023-05-14T20:56:13.548Z,1.17
2023-05-14T20:58:40.556Z,1.90
2023-05-14T21:01:08.208Z,1.20
2023-05-14T21:03:35.560Z,2.03
2023-05-14T21:06:05.770Z,1.42
2023-05-14T21:08:35.048Z,0.98
2023-05-14T21:11:02.007Z,1.35
2023-05-14T21:13:29.029Z,1.02
2023-05-14T21:15:56.229Z,1.00
2023-05-14T21:18:26.793Z,1.08
2023-05-14T21:20:55.660Z,0.77
2023-05-14T21:23:22.819Z,0.85
2023-05-14T21:25:49.985Z,1.13
2023-05-14T21:28:17.008Z,0.80
2023-05-14T21:30:46.293Z,0.90
2023-05-14T21:33:13.338Z,0.90
2023-05-14T21:35:42.881Z,0.85
2023-05-14T21:38:10.002Z,0.73
2023-05-14T21:40:36.965Z,0.70
2023-05-14T21:43:03.916Z,0.65
2023-05-14T21:45:30.899Z,0.85
2023-05-14T21:47:57.906Z,0.85
2023-05-14T21:50:24.974Z,0.90
2023-05-14T21:52:51.916Z,0.90
2023-05-14T21:55:18.974Z,0.95
2023-05-14T21:57:45.886Z,0.95
2023-05-14T22:00:13.370Z,0.63
2023-05-14T22:02:40.397Z,0.75
2023-05-14T22:05:07.866Z,0.90
2023-05-14T22:07:34.840Z,0.70
2023-05-14T22:10:04.124Z,0.50
2023-05-14T22:12:31.398Z,0.60
2023-05-14T22:14:58.308Z,0.60
2023-05-14T22:17:26.481Z,0.57
2023-05-14T22:19:53.599Z,0.50
2023-05-14T22:22:20.739Z,0.70
2023-05-14T22:24:47.651Z,0.40
2023-05-14T22:27:14.557Z,0.77
2023-05-14T22:29:41.618Z,0.70
2023-05-14T22:32:09.754Z,0.65
2023-05-14T22:34:37.399Z,0.68
2023-05-14T22:37:04.455Z,1.23
2023-05-14T22:39:31.399Z,0.88
2023-05-14T22:41:58.394Z,0.82
2023-05-14T22:44:26.077Z,0.63
2023-05-14T22:46:54.247Z,0.85
2023-05-14T22:49:21.159Z,0.60
2023-05-14T22:51:48.213Z,0.60
2023-05-14T22:54:15.227Z,0.68
2023-05-14T22:56:42.108Z,0.60
2023-05-14T22:59:09.111Z,0.80
2023-05-14T23:01:36.000Z,0.63
2023-05-14T23:04:02.940Z,0.70
2023-05-14T23:06:30.184Z,0.40
2023-05-14T23:08:57.113Z,0.75
2023-05-14T23:11:25.513Z,0.63
2023-05-14T23:13:52.412Z,0.80
2023-05-14T23:16:19.526Z,0.70
2023-05-14T23:18:46.741Z,0.57
2023-05-14T23:21:16.526Z,0.60
2023-05-14T23:23:44.555Z,1.10
2023-05-14T23:26:11.463Z,0.80
2023-05-14T23:28:38.449Z,0.65
2023-05-14T23:31:05.475Z,1.00
2023-05-14T23:33:32.334Z,0.90
2023-05-14T23:35:59.232Z,0.93
2023-05-14T23:38:26.064Z,0.93
2023-05-14T23:40:52.909Z,0.77
2023-05-14T23:43:23.732Z,1.08
2023-05-14T23:45:50.876Z,0.70
2023-05-14T23:48:18.448Z,1.00
2023-05-14T23:50:48.803Z,0.70
2023-05-14T23:53:15.756Z,0.70
2023-05-14T23:55:45.021Z,0.93
2023-05-14T23:58:12.133Z,0.68
